createdAt,value
2022-08-29T00:00:28.157Z,93.51
2022-08-29T00:02:56.339Z,93.28
2022-08-29T00:05:25.613Z,93.62
2022-08-29T00:07:53.038Z,94.89
2022-08-29T00:10:20.879Z,93.78
2022-08-29T00:12:47.756Z,94.20
2022-08-29T00:15:14.638Z,94.03
2022-08-29T00:17:41.640Z,94.90
2022-08-29T00:20:09.487Z,96.25
2022-08-29T00:22:36.337Z,97.19
2022-08-29T00:25:05.000Z,97.59
2022-08-29T00:27:32.708Z,98.41
2022-08-29T00:29:59.535Z,99.15
2022-08-29T00:32:26.959Z,100.00
2022-08-29T00:34:53.737Z,100.00
2022-08-29T00:37:20.589Z,100.00
2022-08-29T00:39:47.338Z,100.00
2022-08-29T00:42:14.135Z,100.00
2022-08-29T00:44:41.035Z,100.00
2022-08-29T00:47:10.419Z,100.00
2022-08-29T00:49:43.119Z,100.00
2022-08-29T00:52:40.178Z,100.00
2022-08-29T00:55:12.396Z,100.00
2022-08-29T00:57:45.277Z,100.00
2022-08-29T01:00:13.127Z,100.00
2022-08-29T01:02:41.559Z,100.00
2022-08-29T01:05:12.720Z,100.00
2022-08-29T01:07:40.697Z,100.00
2022-08-29T01:10:13.743Z,100.00
2022-08-29T01:12:40.755Z,100.00
2022-08-29T01:15:09.657Z,100.00
2022-08-29T01:17:45.235Z,100.00
2022-08-29T01:20:25.019Z,100.00
2022-08-29T01:22:51.764Z,100.00
2022-08-29T01:25:21.355Z,100.00
2022-08-29T01:27:52.176Z,100.00
2022-08-29T01:30:19.156Z,100.00
2022-08-29T01:32:46.033Z,100.00
2022-08-29T01:35:12.902Z,100.00
2022-08-29T01:37:41.378Z,100.00
2022-08-29T01:40:09.036Z,100.00
2022-08-29T01:42:37.474Z,100.00
2022-08-29T01:45:05.473Z,100.00
2022-08-29T01:47:37.920Z,100.00
2022-08-29T01:50:10.816Z,100.00
2022-08-29T01:52:37.656Z,100.00
2022-08-29T01:55:04.976Z,100.00
2022-08-29T01:57:31.855Z,100.00
2022-08-29T01:59:58.715Z,100.00
2022-08-29T02:02:27.441Z,100.00
2022-08-29T02:04:54.976Z,100.00
2022-08-29T02:07:24.454Z,100.00
2022-08-29T02:09:51.514Z,100.00
2022-08-29T02:12:18.639Z,100.00
2022-08-29T02:14:45.595Z,100.00
2022-08-29T02:17:12.526Z,100.00
2022-08-29T02:19:40.695Z,100.00
2022-08-29T02:22:07.796Z,100.00
2022-08-29T02:24:34.695Z,100.00
2022-08-29T02:27:01.615Z,100.00
2022-08-29T02:29:30.993Z,100.00
2022-08-29T02:32:07.062Z,100.00
2022-08-29T02:34:34.757Z,100.00
2022-08-29T02:37:01.662Z,100.00
2022-08-29T02:39:28.576Z,100.00
2022-08-29T02:41:55.395Z,100.00
2022-08-29T02:44:22.215Z,100.00
2022-08-29T02:46:49.271Z,100.00
2022-08-29T02:49:16.175Z,100.00
2022-08-29T02:51:43.759Z,100.00
2022-08-29T02:54:12.093Z,99.92
2022-08-29T02:56:39.219Z,99.54
2022-08-29T02:59:06.095Z,99.49
2022-08-29T03:01:33.413Z,100.00
2022-08-29T03:04:00.355Z,100.00
2022-08-29T03:06:27.299Z,100.00
2022-08-29T03:08:54.333Z,100.00
2022-08-29T03:11:21.301Z,100.00
2022-08-29T03:13:48.155Z,100.00
2022-08-29T03:16:15.542Z,100.00
2022-08-29T03:18:43.077Z,100.00
2022-08-29T03:21:20.427Z,100.00
2022-08-29T03:23:48.554Z,100.00
2022-08-29T03:26:15.716Z,100.00
2022-08-29T03:28:42.636Z,100.00
2022-08-29T03:31:09.833Z,100.00
2022-08-29T03:33:37.174Z,100.00
2022-08-29T03:36:13.609Z,100.00
2022-08-29T03:38:43.701Z,100.00
2022-08-29T03:41:10.675Z,100.00
2022-08-29T03:43:37.675Z,100.00
2022-08-29T03:46:04.687Z,100.00
2022-08-29T03:48:33.381Z,100.00
2022-08-29T03:51:00.178Z,99.53
2022-08-29T03:53:27.115Z,99.58
2022-08-29T03:55:54.156Z,99.56
2022-08-29T03:58:20.960Z,99.10
2022-08-29T04:00:47.796Z,99.76
2022-08-29T04:03:14.622Z,98.61
2022-08-29T04:05:41.596Z,98.67
2022-08-29T04:08:08.800Z,99.45
2022-08-29T04:10:39.753Z,99.77
2022-08-29T04:13:07.474Z,99.44
2022-08-29T04:15:34.656Z,100.00
2022-08-29T04:18:02.715Z,100.00
2022-08-29T04:20:31.374Z,100.00
2022-08-29T04:22:59.443Z,99.81
2022-08-29T04:25:27.578Z,100.00
2022-08-29T04:27:54.735Z,99.30
2022-08-29T04:30:23.995Z,99.11
2022-08-29T04:32:50.855Z,99.02
2022-08-29T04:35:17.875Z,99.32
2022-08-29T04:37:44.736Z,100.00
2022-08-29T04:40:14.990Z,99.97
2022-08-29T04:42:41.996Z,100.00
2022-08-29T04:45:12.195Z,100.00
2022-08-29T04:47:39.453Z,99.85
2022-08-29T04:50:07.348Z,99.47
2022-08-29T04:52:34.184Z,99.86
2022-08-29T04:55:00.997Z,99.41
2022-08-29T04:57:27.956Z,99.23
2022-08-29T04:59:55.635Z,98.77
2022-08-29T05:02:23.037Z,98.94
2022-08-29T05:04:52.974Z,98.46
2022-08-29T05:07:21.095Z,98.16
2022-08-29T05:09:55.901Z,97.37
2022-08-29T05:12:22.879Z,97.30
2022-08-29T05:14:49.756Z,98.15
2022-08-29T05:17:16.675Z,97.74
2022-08-29T05:19:45.241Z,97.76
2022-08-29T05:22:15.619Z,97.56
2022-08-29T05:24:42.836Z,97.82
2022-08-29T05:27:10.598Z,97.80
2022-08-29T05:29:41.394Z,96.70
2022-08-29T05:32:09.293Z,96.90
2022-08-29T05:34:36.930Z,97.07
2022-08-29T05:37:07.897Z,97.31
2022-08-29T05:39:34.934Z,96.72
2022-08-29T05:42:02.075Z,95.86
2022-08-29T05:44:32.891Z,97.65
2022-08-29T05:47:01.978Z,95.41
2022-08-29T05:49:28.816Z,95.86
2022-08-29T05:51:56.054Z,96.55
2022-08-29T05:54:23.838Z,97.26
2022-08-29T05:56:51.329Z,98.07
2022-08-29T05:59:18.776Z,97.98
2022-08-29T06:01:46.921Z,97.51
2022-08-29T06:04:13.857Z,97.26
2022-08-29T06:06:41.192Z,99.01
2022-08-29T06:09:08.713Z,96.77
2022-08-29T06:11:35.735Z,98.99
2022-08-29T06:14:02.600Z,97.66
2022-08-29T06:16:29.970Z,94.45
2022-08-29T06:18:57.202Z,89.09
2022-08-29T06:21:24.157Z,85.08
2022-08-29T06:23:51.046Z,80.80
2022-08-29T06:26:18.935Z,81.44
2022-08-29T06:28:46.421Z,76.14
2022-08-29T06:31:18.544Z,76.29
2022-08-29T06:33:45.481Z,73.14
2022-08-29T06:36:12.414Z,68.64
2022-08-29T06:38:39.597Z,70.64
2022-08-29T06:41:08.675Z,68.28
2022-08-29T06:43:35.600Z,65.72
2022-08-29T06:46:02.503Z,65.53
2022-08-29T06:48:29.839Z,63.71
2022-08-29T06:50:56.796Z,63.28
2022-08-29T06:53:31.705Z,63.45
2022-08-29T06:56:04.238Z,62.43
2022-08-29T06:58:32.757Z,61.83
2022-08-29T07:00:59.629Z,66.93
2022-08-29T07:03:26.498Z,61.76
2022-08-29T07:05:54.043Z,61.22
2022-08-29T07:08:23.804Z,58.34
2022-08-29T07:10:50.754Z,59.67
2022-08-29T07:13:17.676Z,58.15
2022-08-29T07:15:44.588Z,59.26
2022-08-29T07:18:12.002Z,61.95
2022-08-29T07:20:40.208Z,62.05
2022-08-29T07:23:08.067Z,65.07
2022-08-29T07:25:35.865Z,66.53
2022-08-29T07:28:03.060Z,61.08
2022-08-29T07:30:29.998Z,57.83
2022-08-29T07:32:56.933Z,56.71
2022-08-29T07:35:30.300Z,56.79
2022-08-29T07:38:01.441Z,61.58
2022-08-29T07:40:28.449Z,66.06
2022-08-29T07:42:55.313Z,69.46
2022-08-29T07:45:22.199Z,65.99
2022-08-29T07:47:48.962Z,63.39
2022-08-29T07:50:17.173Z,64.46
2022-08-29T07:52:44.176Z,64.24
2022-08-29T07:55:11.299Z,65.52
2022-08-29T07:57:39.800Z,64.73
2022-08-29T08:00:12.052Z,63.56
2022-08-29T08:02:39.090Z,60.42
2022-08-29T08:05:07.191Z,54.63
2022-08-29T08:07:35.279Z,56.54
2022-08-29T08:10:03.211Z,59.64
2022-08-29T08:12:30.097Z,56.33
2022-08-29T08:14:57.222Z,50.96
2022-08-29T08:17:24.221Z,48.53
2022-08-29T08:19:51.021Z,51.53
2022-08-29T08:22:17.852Z,48.30
2022-08-29T08:24:45.133Z,47.43
2022-08-29T08:27:12.137Z,48.19
2022-08-29T08:29:39.018Z,49.63
2022-08-29T08:32:05.875Z,48.31
2022-08-29T08:34:35.679Z,54.23
2022-08-29T08:37:07.557Z,50.62
2022-08-29T08:39:34.835Z,48.11
2022-08-29T08:42:24.919Z,50.77
2022-08-29T08:45:08.164Z,41.99
2022-08-29T08:47:40.119Z,43.69
2022-08-29T08:50:54.279Z,43.23
2022-08-29T08:53:35.098Z,44.15
2022-08-29T08:56:05.739Z,48.00
2022-08-29T08:58:51.180Z,46.54
2022-08-29T09:01:43.547Z,42.98
2022-08-29T09:04:48.216Z,43.81
2022-08-29T09:07:36.278Z,41.94
2022-08-29T09:10:08.055Z,45.87
2022-08-29T09:12:41.640Z,44.12
2022-08-29T09:15:19.298Z,44.40
2022-08-29T09:17:52.321Z,49.82
2022-08-29T09:20:41.594Z,40.64
2022-08-29T09:23:28.448Z,41.94
2022-08-29T09:25:55.281Z,39.58
2022-08-29T09:28:22.154Z,42.93
2022-08-29T09:31:32.507Z,40.13
2022-08-29T09:34:12.078Z,37.37
2022-08-29T09:36:52.080Z,43.62
2022-08-29T09:39:26.615Z,42.10
2022-08-29T09:41:57.497Z,42.06
2022-08-29T09:44:32.278Z,43.89
2022-08-29T09:47:12.541Z,44.21
2022-08-29T09:49:40.644Z,42.07
2022-08-29T09:52:17.636Z,45.67
2022-08-29T09:54:44.580Z,41.72
2022-08-29T09:57:19.124Z,38.79
2022-08-29T09:59:49.062Z,38.90
2022-08-29T10:02:22.276Z,39.75
2022-08-29T10:05:03.197Z,44.67
2022-08-29T10:07:32.375Z,51.01
2022-08-29T10:10:07.419Z,44.96
2022-08-29T10:12:39.335Z,52.43
2022-08-29T10:15:09.702Z,50.39
2022-08-29T10:18:05.437Z,46.69
2022-08-29T10:21:12.134Z,49.58
2022-08-29T10:23:58.595Z,42.34
2022-08-29T10:26:43.561Z,42.61
2022-08-29T10:29:48.137Z,39.94
2022-08-29T10:32:43.518Z,44.92
2022-08-29T10:35:40.325Z,45.94
2022-08-29T10:38:14.756Z,46.73
2022-08-29T10:41:09.580Z,49.23
2022-08-29T10:43:48.181Z,50.29
2022-08-29T10:46:23.922Z,52.28
2022-08-29T10:48:53.995Z,55.21
2022-08-29T10:51:42.056Z,51.00
2022-08-29T10:54:27.535Z,48.52
2022-08-29T10:56:54.395Z,52.09
2022-08-29T10:59:33.674Z,53.92
2022-08-29T11:02:03.164Z,48.75
2022-08-29T11:04:53.993Z,49.51
2022-08-29T11:07:33.818Z,51.44
2022-08-29T11:10:26.288Z,53.35
2022-08-29T11:13:03.034Z,52.17
2022-08-29T11:15:32.635Z,47.96
2022-08-29T11:18:22.271Z,45.05
2022-08-29T11:20:52.161Z,42.53
2022-08-29T11:23:38.695Z,44.28
2022-08-29T11:26:22.805Z,43.40
2022-08-29T11:29:24.703Z,42.42
2022-08-29T11:32:03.597Z,43.61
2022-08-29T11:34:55.260Z,41.02
2022-08-29T11:37:33.208Z,43.83
2022-08-29T11:40:10.206Z,41.47
2022-08-29T11:42:54.439Z,39.12
2022-08-29T11:45:35.631Z,45.94
2022-08-29T11:48:10.345Z,44.04
2022-08-29T11:50:38.214Z,43.56
2022-08-29T11:53:23.437Z,39.57
2022-08-29T11:56:15.717Z,40.12
2022-08-29T11:58:53.780Z,35.42
2022-08-29T12:01:39.204Z,37.00
2022-08-29T12:04:07.117Z,40.29
2022-08-29T12:06:39.924Z,35.43
2022-08-29T12:09:13.909Z,36.20
2022-08-29T12:11:59.584Z,36.02
2022-08-29T12:14:38.389Z,36.73
2022-08-29T12:17:07.502Z,37.60
2022-08-29T12:19:54.014Z,37.02
2022-08-29T12:22:57.977Z,36.86
2022-08-29T12:25:27.577Z,39.20
2022-08-29T12:28:02.976Z,40.70
2022-08-29T12:30:33.517Z,39.12
2022-08-29T12:33:36.536Z,38.38
2022-08-29T12:36:14.299Z,36.14
2022-08-29T12:38:58.742Z,38.64
2022-08-29T12:41:59.275Z,42.73
2022-08-29T12:44:40.862Z,48.95
2022-08-29T12:47:09.865Z,49.80
2022-08-29T12:49:51.653Z,53.60
2022-08-29T12:52:31.757Z,54.48
2022-08-29T12:54:59.744Z,55.17
2022-08-29T12:57:32.265Z,59.84
2022-08-29T12:59:59.222Z,65.36
2022-08-29T13:02:36.384Z,72.59
2022-08-29T13:05:05.561Z,77.79
2022-08-29T13:07:32.491Z,80.20
2022-08-29T13:10:00.565Z,81.30
2022-08-29T13:12:36.756Z,80.89
2022-08-29T13:15:06.301Z,81.51
2022-08-29T13:17:40.179Z,82.06
2022-08-29T13:20:45.896Z,85.94
2022-08-29T13:23:12.706Z,82.15
2022-08-29T13:25:59.604Z,81.25
2022-08-29T13:28:57.941Z,81.06
2022-08-29T13:31:31.348Z,81.76
2022-08-29T13:33:58.297Z,80.02
2022-08-29T13:36:28.143Z,79.43
2022-08-29T13:39:38.115Z,78.98
2022-08-29T13:42:14.726Z,76.05
2022-08-29T13:44:53.210Z,70.17
2022-08-29T13:47:25.608Z,61.86
2022-08-29T13:49:56.439Z,55.92
2022-08-29T13:52:24.030Z,54.26
2022-08-29T13:55:04.208Z,55.63
2022-08-29T13:57:31.681Z,59.19
2022-08-29T13:59:58.753Z,62.18
2022-08-29T14:02:26.222Z,62.94
2022-08-29T14:04:53.329Z,62.64
2022-08-29T14:07:26.039Z,59.97
2022-08-29T14:09:53.090Z,60.10
2022-08-29T14:12:20.038Z,54.59
2022-08-29T14:15:04.079Z,52.88
2022-08-29T14:17:35.185Z,49.36
2022-08-29T14:20:02.022Z,49.98
2022-08-29T14:22:28.926Z,49.21
2022-08-29T14:24:55.762Z,48.43
2022-08-29T14:27:22.724Z,52.70
2022-08-29T14:29:49.622Z,48.00
2022-08-29T14:32:16.497Z,49.66
2022-08-29T14:34:45.483Z,53.98
2022-08-29T14:37:20.111Z,56.21
2022-08-29T14:39:50.045Z,55.84
2022-08-29T14:42:17.815Z,58.82
2022-08-29T14:44:44.701Z,63.39
2022-08-29T14:47:11.598Z,65.66
2022-08-29T14:49:38.407Z,67.88
2022-08-29T14:52:05.718Z,70.29
2022-08-29T14:54:32.673Z,70.77
2022-08-29T14:56:59.841Z,72.11
2022-08-29T14:59:26.760Z,71.37
2022-08-29T15:01:55.045Z,71.53
2022-08-29T15:04:35.085Z,71.56
2022-08-29T15:07:06.156Z,73.35
2022-08-29T15:09:33.111Z,72.87
2022-08-29T15:11:59.927Z,76.44
2022-08-29T15:14:26.738Z,72.33
2022-08-29T15:16:53.641Z,71.40
2022-08-29T15:22:08.536Z,70.90
2022-08-29T15:24:35.600Z,72.89
2022-08-29T15:27:02.543Z,71.79
2022-08-29T15:29:29.499Z,71.90
2022-08-29T15:31:57.471Z,71.99
2022-08-29T15:34:28.026Z,72.72
2022-08-29T15:36:55.099Z,74.29
2022-08-29T15:39:22.195Z,75.14
2022-08-29T15:41:49.120Z,77.32
2022-08-29T15:44:16.019Z,78.33
2022-08-29T15:46:50.190Z,79.71
2022-08-29T15:49:17.537Z,80.63
2022-08-29T15:51:44.458Z,80.14
2022-08-29T15:54:12.454Z,81.15
2022-08-29T15:56:39.276Z,80.93
2022-08-29T15:59:08.043Z,81.62
2022-08-29T16:01:42.783Z,81.61
2022-08-29T16:04:10.184Z,81.28
2022-08-29T16:06:37.357Z,81.24
2022-08-29T16:09:14.946Z,81.54
2022-08-29T16:11:46.596Z,80.31
2022-08-29T16:14:58.017Z,81.27
2022-08-29T16:17:00.438Z,81.76
2022-08-29T16:19:27.318Z,80.77
2022-08-29T16:21:59.782Z,81.06
2022-08-29T16:24:27.934Z,84.01
2022-08-29T16:26:55.458Z,82.58
2022-08-29T16:29:26.620Z,82.87
2022-08-29T16:31:56.052Z,82.16
2022-08-29T16:34:25.645Z,82.42
2022-08-29T16:36:58.401Z,83.08
2022-08-29T16:39:25.417Z,84.13
2022-08-29T16:41:52.375Z,82.28
2022-08-29T16:44:20.485Z,81.17
2022-08-29T16:46:47.359Z,81.04
2022-08-29T16:49:14.245Z,80.84
2022-08-29T16:51:41.148Z,80.80
2022-08-29T16:54:08.199Z,81.01
2022-08-29T16:56:35.123Z,82.31
2022-08-29T16:59:03.065Z,83.80
2022-08-29T17:01:38.069Z,84.57
2022-08-29T17:04:06.744Z,84.82
2022-08-29T17:06:33.646Z,86.07
2022-08-29T17:09:03.308Z,85.77
2022-08-29T17:11:32.178Z,86.56
2022-08-29T17:13:58.881Z,88.21
2022-08-29T17:16:25.816Z,90.04
2022-08-29T17:18:52.651Z,91.64
2022-08-29T17:21:19.507Z,92.37
2022-08-29T17:23:46.397Z,93.55
2022-08-29T17:26:14.062Z,94.25
2022-08-29T17:28:40.988Z,92.96
2022-08-29T17:31:07.943Z,94.11
2022-08-29T17:33:34.930Z,94.74
2022-08-29T17:36:03.036Z,94.79
2022-08-29T17:38:31.059Z,94.81
2022-08-29T17:41:02.325Z,94.43
2022-08-29T17:43:32.902Z,95.33
2022-08-29T17:45:59.754Z,95.21
2022-08-29T17:48:26.593Z,93.83
2022-08-29T17:50:54.025Z,93.52
2022-08-29T17:53:21.208Z,93.84
2022-08-29T17:55:48.484Z,94.07
2022-08-29T17:58:15.422Z,95.05
2022-08-29T18:00:42.325Z,95.37
2022-08-29T18:03:09.441Z,95.20
2022-08-29T18:05:36.264Z,94.88
2022-08-29T18:08:03.274Z,95.21
2022-08-29T18:10:30.364Z,95.39
2022-08-29T18:12:57.354Z,94.56
2022-08-29T18:15:24.282Z,94.94
2022-08-29T18:17:52.682Z,94.06
2022-08-29T18:20:21.716Z,95.81
2022-08-29T18:22:49.826Z,95.84
2022-08-29T18:25:17.182Z,95.88
2022-08-29T18:27:50.391Z,95.47
2022-08-29T18:30:17.356Z,95.48
2022-08-29T18:32:44.222Z,95.60
2022-08-29T18:35:11.208Z,94.50
2022-08-29T18:37:38.055Z,95.76
2022-08-29T18:40:05.543Z,95.06
2022-08-29T18:42:40.370Z,95.40
2022-08-29T18:45:08.396Z,96.72
2022-08-29T18:47:35.234Z,96.65
2022-08-29T18:50:20.478Z,97.30
2022-08-29T18:52:52.441Z,97.82
2022-08-29T18:55:19.555Z,98.00
2022-08-29T18:57:48.389Z,98.67
2022-08-29T19:00:16.235Z,99.58
2022-08-29T19:02:43.261Z,99.17
2022-08-29T19:05:10.237Z,99.33
2022-08-29T19:07:37.133Z,98.71
2022-08-29T19:10:04.803Z,100.00
2022-08-29T19:12:31.573Z,99.11
2022-08-29T19:14:58.363Z,98.83
2022-08-29T19:17:25.173Z,98.67
2022-08-29T19:20:10.666Z,98.92
2022-08-29T19:22:39.375Z,98.00
2022-08-29T19:25:08.792Z,97.41
2022-08-29T19:27:44.375Z,98.14
2022-08-29T19:30:13.537Z,98.04
2022-08-29T19:32:40.458Z,98.37
2022-08-29T19:35:07.832Z,97.93
2022-08-29T19:37:34.671Z,98.66
2022-08-29T19:40:02.150Z,98.36
2022-08-29T19:42:28.950Z,97.38
2022-08-29T19:44:56.458Z,98.02
2022-08-29T19:47:23.970Z,97.79
2022-08-29T19:49:50.961Z,97.82
2022-08-29T19:52:17.997Z,97.08
2022-08-29T19:54:44.773Z,96.88
2022-08-29T19:57:14.916Z,97.02
2022-08-29T19:59:42.219Z,96.71
2022-08-29T20:02:10.768Z,96.26
2022-08-29T20:04:38.136Z,96.15
2022-08-29T20:07:05.491Z,95.65
2022-08-29T20:09:32.416Z,95.53
2022-08-29T20:11:59.426Z,95.94
2022-08-29T20:14:26.286Z,97.34
2022-08-29T20:16:53.230Z,96.61
2022-08-29T20:19:21.493Z,96.87
2022-08-29T20:21:49.934Z,97.53
2022-08-29T20:24:17.066Z,97.04
2022-08-29T20:26:44.759Z,96.31
2022-08-29T20:29:11.831Z,96.44
2022-08-29T20:31:38.893Z,96.72
2022-08-29T20:34:05.815Z,97.61
2022-08-29T20:36:50.976Z,99.42
2022-08-29T20:39:18.585Z,99.71
2022-08-29T20:41:55.325Z,99.28
2022-08-29T20:44:23.327Z,100.00
2022-08-29T20:46:50.189Z,99.55
2022-08-29T20:49:19.894Z,99.75
2022-08-29T20:51:46.958Z,99.85
2022-08-29T20:54:14.464Z,100.00
2022-08-29T20:56:41.372Z,99.35
2022-08-29T20:59:08.210Z,100.00
2022-08-29T21:01:36.164Z,100.00
2022-08-29T21:04:23.104Z,100.00
2022-08-29T21:06:55.012Z,100.00
2022-08-29T21:09:25.111Z,100.00
2022-08-29T21:11:52.144Z,100.00
2022-08-29T21:14:19.179Z,100.00
2022-08-29T21:16:46.266Z,100.00
2022-08-29T21:19:13.512Z,100.00
2022-08-29T21:21:41.108Z,100.00
2022-08-29T21:24:08.140Z,100.00
2022-08-29T21:26:35.064Z,100.00
2022-08-29T21:29:01.868Z,99.99
2022-08-29T21:31:28.833Z,100.00
2022-08-29T21:33:55.849Z,100.00
2022-08-29T21:36:25.790Z,99.83
2022-08-29T21:38:54.297Z,100.00
2022-08-29T21:41:21.483Z,98.63
2022-08-29T21:43:48.324Z,98.59
2022-08-29T21:46:16.129Z,98.95
2022-08-29T21:48:43.099Z,99.02
2022-08-29T21:51:10.229Z,98.19
2022-08-29T21:53:37.765Z,98.72
2022-08-29T21:56:08.634Z,98.73
2022-08-29T21:58:35.628Z,96.90
2022-08-29T22:01:02.458Z,97.17
2022-08-29T22:03:29.368Z,96.27
2022-08-29T22:05:56.300Z,95.81
2022-08-29T22:08:23.200Z,96.47
2022-08-29T22:10:50.026Z,97.39
2022-08-29T22:13:17.264Z,97.69
2022-08-29T22:16:02.644Z,97.52
2022-08-29T22:18:29.558Z,98.18
2022-08-29T22:21:00.407Z,98.38
2022-08-29T22:23:27.344Z,99.58
2022-08-29T22:25:54.164Z,99.30
2022-08-29T22:28:21.300Z,100.00
2022-08-29T22:30:48.849Z,100.00
2022-08-29T22:33:16.455Z,100.00
2022-08-29T22:35:43.765Z,100.00
2022-08-29T22:38:10.742Z,100.00
2022-08-29T22:40:37.649Z,100.00
2022-08-29T22:43:04.597Z,100.00
2022-08-29T22:45:32.359Z,100.00
2022-08-29T22:47:59.209Z,100.00
2022-08-29T22:50:26.176Z,100.00
2022-08-29T22:52:56.520Z,100.00
2022-08-29T22:57:49.585Z,100.00
2022-08-29T23:00:19.411Z,100.00
2022-08-29T23:02:46.324Z,100.00
2022-08-29T23:05:13.375Z,100.00
2022-08-29T23:07:40.201Z,100.00
2022-08-29T23:10:08.061Z,100.00
2022-08-29T23:12:38.644Z,100.00
2022-08-29T23:15:06.878Z,100.00
2022-08-29T23:17:33.816Z,100.00
2022-08-29T23:20:00.659Z,100.00
2022-08-29T23:22:27.539Z,100.00
2022-08-29T23:24:58.741Z,100.00
2022-08-29T23:27:29.779Z,100.00
2022-08-29T23:29:57.080Z,100.00
2022-08-29T23:32:23.941Z,100.00
2022-08-29T23:34:50.776Z,100.00
2022-08-29T23:37:17.579Z,100.00
2022-08-29T23:39:44.421Z,100.00
2022-08-29T23:42:11.300Z,100.00
2022-08-29T23:44:38.115Z,100.00
2022-08-29T23:47:05.215Z,100.00
2022-08-29T23:49:35.322Z,100.00
2022-08-29T23:52:02.197Z,100.00
2022-08-29T23:54:31.389Z,100.00
2022-08-29T23:56:58.278Z,100.00
2022-08-29T23:59:43.456Z,100.00
